| time (UTC) | temp C | wind direction | speed KPH | gust KPH | rain 1hr cm | rain 24hr cm | rain mn cm | humidity % | barometer mb |
| 20260510231019 | 29 | 270 | 4.8 | 11.3 | 0.00 | 0.03 | 0.03 | 69 | 1013.9 |
| 20260510230019 | 29 | 270 | 6.4 | 12.9 | 0.00 | 0.03 | 0.03 | 68 | 1014.0 |
| 20260510225019 | 29 | 293 | 6.4 | 11.3 | 0.00 | 0.03 | 0.03 | 68 | 1013.9 |
| 20260510224019 | 30 | 270 | 4.8 | 12.9 | 0.00 | 0.03 | 0.03 | 67 | 1013.9 |
| 20260510223019 | 30 | 270 | 6.4 | 14.5 | 0.00 | 0.03 | 0.03 | 69 | 1014.0 |
| 20260510222019 | 30 | 270 | 4.8 | 11.3 | 0.00 | 0.03 | 0.03 | 68 | 1014.0 |
| 20260510221019 | 30 | 293 | 6.4 | 12.9 | 0.00 | 0.03 | 0.03 | 68 | 1014.0 |
| 20260510220019 | 30 | 293 | 9.7 | 17.7 | 0.00 | 0.03 | 0.03 | 69 | 1014.0 |
| 20260510215019 | 30 | 293 | 9.7 | 19.3 | 0.00 | 0.03 | 0.03 | 69 | 1014.1 |
| 20260510214019 | 30 | 270 | 4.8 | 14.5 | 0.00 | 0.03 | 0.03 | 69 | 1014.2 |
| 20260510213019 | 30 | 293 | 6.4 | 14.5 | 0.00 | 0.03 | 0.03 | 69 | 1014.2 |
| 20260510212019 | 30 | 270 | 3.2 | 6.4 | 0.00 | 0.03 | 0.03 | 69 | 1014.3 |
| 20260510211019 | 29 | 270 | 3.2 | 6.4 | 0.00 | 0.03 | 0.03 | 71 | 1014.2 |
| 20260510210019 | 28 | 0.0 | 4.8 | 0.00 | 0.03 | 0.03 | 72 | 1014.4 | |
| 20260510205039 | 28 | 180 | 1.6 | 4.8 | 0.00 | 0.03 | 0.03 | 71 | 1014.3 |
| 20260510204019 | 29 | 293 | 1.6 | 4.8 | 0.00 | 0.03 | 0.03 | 73 | 1014.2 |
| 20260510203039 | 28 | 248 | 4.8 | 11.3 | 0.00 | 0.03 | 0.03 | 72 | 1014.2 |
| 20260510202019 | 27 | 248 | 4.8 | 11.3 | 0.00 | 0.03 | 0.03 | 75 | 1014.3 |
| 20260510201019 | 26 | 225 | 3.2 | 11.3 | 0.00 | 0.03 | 0.03 | 80 | 1014.4 |
| 20260510200019 | 26 | 248 | 1.6 | 4.8 | 0.00 | 0.03 | 0.03 | 82 | 1014.3 |
| 20260510195019 | 26 | 225 | 4.8 | 12.9 | 0.00 | 0.03 | 0.03 | 80 | 1014.5 |
| 20260510194039 | 26 | 270 | 3.2 | 6.4 | 0.00 | 0.03 | 0.03 | 81 | 1014.2 |
| 20260510193019 | 26 | 270 | 4.8 | 16.1 | 0.00 | 0.03 | 0.03 | 83 | 1014.3 |
| 20260510192019 | 26 | 0.0 | 3.2 | 0.00 | 0.03 | 0.03 | 83 | 1014.6 | |
| 20260510191019 | 26 | 293 | 3.2 | 6.4 | 0.00 | 0.03 | 0.03 | 80 | 1014.6 |
| 20260510190019 | 26 | 293 | 3.2 | 8.0 | 0.00 | 0.03 | 0.03 | 79 | 1014.5 |
| 20260510185019 | 26 | 338 | 4.8 | 12.9 | 0.00 | 0.03 | 0.03 | 77 | 1014.6 |
| 20260510184019 | 26 | 315 | 8.0 | 16.1 | 0.00 | 0.03 | 0.03 | 77 | 1014.8 |
| 20260510183019 | 26 | 0 | 11.3 | 24.1 | 0.00 | 0.03 | 0.03 | 75 | 1015.2 |
| 20260510182019 | 28 | 293 | 16.1 | 33.8 | 0.00 | 0.03 | 0.03 | 68 | 1014.9 |
| 20260510181019 | 31 | 293 | 4.8 | 17.7 | 0.00 | 0.03 | 0.03 | 62 | 1014.6 |
| 20260510180019 | 32 | 203 | 3.2 | 11.3 | 0.00 | 0.03 | 0.03 | 58 | 1014.5 |
| 20260510175019 | 32 | 180 | 3.2 | 9.7 | 0.00 | 0.03 | 0.03 | 61 | 1014.4 |
| 20260510174019 | 32 | 248 | 3.2 | 6.4 | 0.00 | 0.03 | 0.03 | 58 | 1014.5 |
| 20260510173019 | 33 | 113 | 3.2 | 8.0 | 0.00 | 0.03 | 0.03 | 58 | 1014.7 |
| 20260510172019 | 33 | 225 | 3.2 | 12.9 | 0.00 | 0.03 | 0.03 | 60 | 1014.9 |
| 20260510171019 | 33 | 293 | 9.7 | 17.7 | 0.00 | 0.03 | 0.03 | 59 | 1015.1 |
| 20260510170019 | 32 | 293 | 4.8 | 12.9 | 0.00 | 0.03 | 0.03 | 59 | 1015.3 |
| 20260510165019 | 33 | 270 | 6.4 | 16.1 | 0.00 | 0.03 | 0.03 | 64 | 1015.3 |
| 20260510164019 | 32 | 293 | 3.2 | 8.0 | 0.00 | 0.03 | 0.03 | 62 | 1015.5 |
| 20260510163019 | 31 | 293 | 3.2 | 11.3 | 0.00 | 0.03 | 0.03 | 65 | 1015.7 |
| 20260510162019 | 31 | 203 | 3.2 | 16.1 | 0.00 | 0.03 | 0.03 | 65 | 1015.6 |
| 20260510161019 | 31 | 135 | 6.4 | 14.5 | 0.00 | 0.03 | 0.03 | 64 | 1015.7 |
| 20260510160019 | 31 | 248 | 4.8 | 14.5 | 0.00 | 0.03 | 0.03 | 64 | 1015.7 |
| 20260510155019 | 31 | 180 | 6.4 | 14.5 | 0.00 | 0.03 | 0.03 | 65 | 1015.7 |
| 20260510154019 | 31 | 203 | 6.4 | 19.3 | 0.00 | 0.03 | 0.03 | 67 | 1015.7 |
| 20260510153019 | 30 | 225 | 6.4 | 16.1 | 0.00 | 0.03 | 0.03 | 70 | 1015.6 |
| 20260510152019 | 30 | 180 | 6.4 | 16.1 | 0.00 | 0.03 | 0.03 | 71 | 1015.6 |
| 20260510151019 | 30 | 225 | 4.8 | 12.9 | 0.00 | 0.03 | 0.03 | 73 | 1015.7 |
| 20260510150019 | 28 | 180 | 3.2 | 9.7 | 0.00 | 0.03 | 0.03 | 75 | 1015.8 |
| 20260510145019 | 28 | 203 | 3.2 | 8.0 | 0.00 | 0.03 | 0.03 | 75 | 1015.7 |
| 20260510144019 | 28 | 203 | 3.2 | 9.7 | 0.00 | 0.03 | 0.03 | 74 | 1015.7 |
| 20260510143019 | 28 | 248 | 3.2 | 12.9 | 0.00 | 0.03 | 0.03 | 76 | 1015.6 |
| 20260510142039 | 27 | 180 | 1.6 | 12.9 | 0.00 | 0.03 | 0.03 | 81 | 1015.5 |
| 20260510141019 | 27 | 158 | 1.6 | 12.9 | 0.00 | 0.03 | 0.03 | 83 | 1015.6 |
| 20260510140019 | 26 | 225 | 1.6 | 8.0 | 0.00 | 0.03 | 0.03 | 89 | 1015.6 |
| 20260510135019 | 25 | 0.0 | 3.2 | 0.00 | 0.03 | 0.03 | 93 | 1015.6 | |
| 20260510134019 | 24 | 203 | 1.6 | 6.4 | 0.00 | 0.03 | 0.03 | 93 | 1015.5 |
| 20260510133019 | 24 | 0.0 | 4.8 | 0.00 | 0.03 | 0.03 | 94 | 1015.3 | |
| 20260510132019 | 24 | 180 | 1.6 | 8.0 | 0.00 | 0.03 | 0.03 | 94 | 1015.3 |
| 20260510131019 | 24 | 180 | 1.6 | 6.4 | 0.00 | 0.03 | 0.03 | 94 | 1015.1 |
| 20260510130039 | 23 | 0.0 | 1.6 | 0.00 | 0.03 | 0.03 | 94 | 1015.1 | |
| 20260510125019 | 23 | 0.0 | 3.2 | 0.00 | 0.03 | 0.03 | 94 | 1014.9 | |
| 20260510124019 | 23 | 203 | 1.6 | 4.8 | 0.00 | 0.03 | 0.03 | 94 | 1015.0 |
| 20260510123019 | 23 | 0.0 | 3.2 | 0.00 | 0.03 | 0.03 | 94 | 1014.9 | |
| 20260510122019 | 23 | 180 | 1.6 | 4.8 | 0.00 | 0.03 | 0.03 | 94 | 1014.8 |
| 20260510121019 | 23 | 0.0 | 4.8 | 0.00 | 0.03 | 0.03 | 94 | 1014.7 | |
| 20260510120019 | 22 | 203 | 1.6 | 3.2 | 0.00 | 0.03 | 0.03 | 94 | 1014.5 |
| 20260510115018 | 22 | 203 | 1.6 | 4.8 | 0.00 | 0.03 | 0.03 | 93 | 1014.1 |
| 20260510114018 | 22 | 0.0 | 0.0 | 0.00 | 0.03 | 0.03 | 93 | 1014.0 | |
| 20260510113019 | 22 | 0.0 | 3.2 | 0.00 | 0.03 | 0.03 | 93 | 1014.0 | |
| 20260510112019 | 22 | 180 | 1.6 | 6.4 | 0.00 | 0.03 | 0.03 | 93 | 1013.9 |
| 20260510111019 | 22 | 0.0 | 3.2 | 0.00 | 0.03 | 0.03 | 93 | 1013.8 | |
| 20260510110039 | 22 | 0.0 | 0.0 | 0.00 | 0.03 | 0.03 | 93 | 1013.8 | |
| 20260510105039 | 22 | 0.0 | 0.0 | 0.00 | 0.03 | 0.03 | 93 | 1013.4 | |
| 20260510104019 | 22 | 0 | 1.6 | 3.2 | 0.00 | 0.03 | 0.03 | 93 | 1013.4 |
| 20260510103019 | 22 | 0.0 | 4.8 | 0.00 | 0.03 | 0.03 | 93 | 1013.2 | |
| 20260510102019 | 22 | 0.0 | 0.0 | 0.00 | 0.03 | 0.03 | 92 | 1013.0 | |
| 20260510101019 | 22 | 0.0 | 1.6 | 0.00 | 0.03 | 0.03 | 92 | 1013.0 | |
| 20260510100018 | 22 | 0 | 1.6 | 3.2 | 0.00 | 0.03 | 0.03 | 92 | 1012.8 |
| 20260510095019 | 22 | 0.0 | 4.8 | 0.00 | 0.03 | 0.03 | 92 | 1012.7 | |
| 20260510094019 | 22 | 0.0 | 3.2 | 0.00 | 0.03 | 0.03 | 92 | 1012.6 | |
| 20260510093018 | 22 | 0 | 1.6 | 4.8 | 0.00 | 0.03 | 0.03 | 92 | 1012.7 |
| 20260510092019 | 22 | 0 | 1.6 | 3.2 | 0.00 | 0.03 | 0.03 | 92 | 1012.7 |
| 20260510091019 | 22 | 0.0 | 3.2 | 0.00 | 0.03 | 0.03 | 92 | 1012.6 | |
| 20260510090019 | 22 | 0.0 | 6.4 | 0.00 | 0.03 | 0.03 | 92 | 1012.5 | |
| 20260510085018 | 22 | 0.0 | 1.6 | 0.00 | 0.03 | 0.03 | 92 | 1012.3 | |
| 20260510084019 | 22 | 0.0 | 0.0 | 0.00 | 0.03 | 0.03 | 91 | 1012.2 | |
| 20260510083018 | 22 | 0.0 | 3.2 | 0.00 | 0.03 | 0.03 | 91 | 1012.2 | |
| 20260510082018 | 22 | 0.0 | 1.6 | 0.00 | 0.03 | 0.03 | 91 | 1012.3 | |
| 20260510081018 | 22 | 0.0 | 3.2 | 0.00 | 0.03 | 0.03 | 91 | 1012.4 | |
| 20260510080018 | 22 | 0 | 1.6 | 1.6 | 0.00 | 0.03 | 0.03 | 91 | 1012.5 |
| 20260510075019 | 22 | 0.0 | 1.6 | 0.00 | 0.03 | 0.03 | 91 | 1012.6 | |
| 20260510074019 | 22 | 0.0 | 3.2 | 0.00 | 0.03 | 0.03 | 91 | 1012.4 | |
| 20260510073019 | 22 | 0.0 | 0.0 | 0.00 | 0.03 | 0.03 | 91 | 1012.6 | |
| 20260510072018 | 22 | 0.0 | 0.0 | 0.00 | 0.03 | 0.03 | 91 | 1012.7 | |
| 20260510071018 | 22 | 0.0 | 0.0 | 0.00 | 0.03 | 0.03 | 90 | 1013.0 | |
| 20260510070019 | 22 | 0.0 | 0.0 | 0.03 | 0.03 | 0.03 | 90 | 1013.0 | |
| 20260510065018 | 22 | 0.0 | 0.0 | 0.03 | 0.03 | 0.03 | 90 | 1013.1 | |
| 20260510064018 | 22 | 0.0 | 0.0 | 0.03 | 0.03 | 0.03 | 90 | 1013.2 | |
| 20260510063018 | 22 | 0.0 | 0.0 | 0.03 | 0.03 | 0.03 | 90 | 1013.1 | |
| 20260510062018 | 22 | 0.0 | 3.2 | 0.03 | 0.03 | 0.03 | 90 | 1013.1 | |
| 20260510061019 | 22 | 0.0 | 3.2 | 0.03 | 0.03 | 0.03 | 89 | 1013.4 | |
| 20260510060019 | 22 | 0.0 | 0.0 | 0.00 | 0.00 | 0.00 | 89 | 1013.5 | |
| 20260510055019 | 22 | 0.0 | 0.0 | 0.00 | 0.00 | 0.00 | 89 | 1013.4 | |
| 20260510054018 | 22 | 0.0 | 0.0 | 0.00 | 0.00 | 0.00 | 89 | 1013.6 | |
| 20260510053018 | 22 | 0.0 | 0.0 | 0.00 | 0.00 | 0.00 | 89 | 1013.7 | |
| 20260510052018 | 22 | 0.0 | 0.0 | 0.00 | 0.00 | 0.00 | 88 | 1013.8 | |
| 20260510051019 | 22 | 0.0 | 0.0 | 0.00 | 0.00 | 0.00 | 88 | 1013.9 | |
| 20260510050018 | 22 | 0.0 | 0.0 | 0.00 | 0.00 | 0.00 | 88 | 1014.0 | |
| 20260510045019 | 22 | 0.0 | 0.0 | 0.00 | 0.00 | 0.00 | 88 | 1014.0 | |
| 20260510044018 | 23 | 0.0 | 0.0 | 0.00 | 0.00 | 0.00 | 88 | 1014.1 | |
| 20260510043019 | 23 | 0.0 | 0.0 | 0.00 | 0.00 | 0.00 | 87 | 1014.0 | |
| 20260510042018 | 23 | 0.0 | 3.2 | 0.00 | 0.00 | 0.00 | 87 | 1014.2 | |
| 20260510041019 | 23 | 0.0 | 0.0 | 0.00 | 0.00 | 0.00 | 87 | 1014.1 | |
| 20260510040018 | 23 | 0.0 | 1.6 | 0.00 | 0.00 | 0.00 | 87 | 1014.2 | |
| 20260510035019 | 23 | 0.0 | 0.0 | 0.00 | 0.00 | 0.00 | 87 | 1014.1 | |
| 20260510034019 | 23 | 0.0 | 0.0 | 0.00 | 0.00 | 0.00 | 87 | 1014.2 | |
| 20260510033019 | 23 | 0.0 | 3.2 | 0.00 | 0.00 | 0.00 | 87 | 1014.2 | |
| 20260510032019 | 23 | 0 | 1.6 | 4.8 | 0.00 | 0.00 | 0.00 | 86 | 1013.9 |
| 20260510031039 | 24 | 0.0 | 3.2 | 0.00 | 0.00 | 0.00 | 86 | 1013.9 | |
| 20260510030019 | 24 | 0.0 | 4.8 | 0.00 | 0.00 | 0.00 | 86 | 1014.1 | |
| 20260510025019 | 24 | 135 | 1.6 | 4.8 | 0.00 | 0.00 | 0.00 | 86 | 1013.9 |
| 20260510024019 | 24 | 90 | 1.6 | 4.8 | 0.00 | 0.00 | 0.00 | 86 | 1014.1 |
| 20260510023019 | 24 | 23 | 1.6 | 6.4 | 0.00 | 0.00 | 0.00 | 86 | 1013.9 |
| 20260510022019 | 25 | 23 | 1.6 | 6.4 | 0.00 | 0.00 | 0.00 | 86 | 1013.9 |
| 20260510021019 | 25 | 23 | 1.6 | 4.8 | 0.00 | 0.00 | 0.00 | 86 | 1013.9 |
| 20260510020039 | 25 | 0.0 | 1.6 | 0.00 | 0.00 | 0.00 | 85 | 1013.7 | |
| 20260510015019 | 25 | 23 | 1.6 | 6.4 | 0.00 | 0.03 | 0.00 | 85 | 1013.5 |
| 20260510014019 | 25 | 23 | 3.2 | 8.0 | 0.00 | 0.03 | 0.00 | 85 | 1013.4 |
| 20260510013019 | 25 | 23 | 1.6 | 3.2 | 0.00 | 0.03 | 0.00 | 84 | 1013.2 |
| 20260510012059 | 25 | 23 | 1.6 | 8.0 | 0.00 | 0.03 | 0.00 | 84 | 1013.1 |
| 20260510011019 | 25 | 23 | 1.6 | 4.8 | 0.00 | 0.03 | 0.00 | 84 | 1013.4 |
| 20260510010019 | 25 | 0.0 | 3.2 | 0.00 | 0.03 | 0.00 | 84 | 1013.3 | |
| 20260510005020 | 25 | 23 | 1.6 | 8.0 | 0.00 | 0.03 | 0.00 | 83 | 1013.0 |
| 20260510004019 | 25 | 23 | 1.6 | 4.8 | 0.00 | 0.03 | 0.00 | 83 | 1012.7 |
| 20260510003019 | 26 | 23 | 3.2 | 11.3 | 0.00 | 0.03 | 0.00 | 83 | 1012.6 |
| 20260510002019 | 26 | 23 | 3.2 | 6.4 | 0.00 | 0.03 | 0.00 | 82 | 1012.4 |
| 20260510001019 | 26 | 23 | 4.8 | 9.7 | 0.00 | 0.03 | 0.00 | 82 | 1012.2 |
| 20260510000019 | 26 | 23 | 4.8 | 11.3 | 0.00 | 0.03 | 0.00 | 82 | 1012.1 |
| 20260509235019 | 26 | 45 | 6.4 | 16.1 | 0.00 | 0.03 | 0.00 | 82 | 1012.0 |
| 20260509234019 | 26 | 23 | 6.4 | 12.9 | 0.00 | 0.03 | 0.00 | 81 | 1011.9 |
| 20260509233019 | 27 | 23 | 3.2 | 9.7 | 0.00 | 0.03 | 0.00 | 80 | 1011.7 |
| 20260509232019 | 27 | 0 | 4.8 | 12.9 | 0.00 | 0.03 | 0.00 | 79 | 1011.6 |